• Join FlightAware (Why Join?)
  • Login
  • US Flag 
01:40PM EDT


 

Airport Tracker/Info


-or-


 

Live Flight TrackerFlight Track Log ✈ N589H ✈ 09-Apr-2014 ✈ KPIE - KPSM

Flight Track Log - Related Links

Times and Time Zones

All times are in EDT time to prevent confusion due to time zone crossing. See the N589H flight status page for this flight to view local times or setup timezone preferences in your user account.

Time Position Orientation Groundspeed Altitude Reporting Facility
EDT Latitude Longitude Course Direction KTS MPH feet Rate Location/Type
07:04PM 27.9333 -82.7000 360° North 153 176 400  Level Tampa TRACON
07:06PM 27.9833 -82.7000 360° North 175 201 2,800 1,380 Climbing Tampa TRACON
07:08PM 28.0808 -82.6833 North 181 208 4,900 660 Climbing Jacksonville Center
07:09PM 28.1778 -82.6578 13° North 256 295 5,000  Climbing Miami Center
07:10PM 28.2206 -82.6500 North 242 278 5,000 720 Level Jacksonville Center
07:12PM 28.3583 -82.6167 12° North 254 292 7,000 960 Climbing Jacksonville Center
07:13PM 28.4272 -82.6000 12° North 254 292 8,000 960 Climbing Jacksonville Center
07:14PM 28.5253 -82.5817 North 255 293 9,500 960 Climbing Miami Center
07:17PM 28.7067 -82.5825 360° North 254 292 11,900 960 Climbing Jacksonville Center
07:18PM 28.7778 -82.5847 358° North 254 292 12,900 540 Climbing Jacksonville Center
07:19PM 28.8486 -82.5892 357° North 254 292 13,000 540 Climbing Jacksonville Center
07:20PM 28.9217 -82.5936 357° North 270 311 14,000 1,020 Climbing Jacksonville Center
07:21PM 28.9969 -82.5958 359° North 275 316 15,100 1,020 Climbing Jacksonville Center
07:22PM 29.0719 -82.6028 355° North 275 316 16,100 1,020 Climbing Jacksonville Center
07:23PM 29.1492 -82.6072 357° North 275 316 17,200 960 Climbing Jacksonville Center
07:24PM 29.2267 -82.6094 359° North 275 316 18,100 900 Climbing Jacksonville Center
07:25PM 29.3039 -82.6164 356° North 275 316 19,100 960 Climbing Jacksonville Center
07:26PM 29.3811 -82.6208 357° North 275 316 20,100 1,020 Climbing Jacksonville Center
07:27PM 29.4603 -82.6256 357° North 275 316 21,200 1,020 Climbing Jacksonville Center
07:28PM 29.5417 -82.6300 357° North 280 322 22,200 960 Climbing Jacksonville Center
07:29PM 29.6211 -82.6344 357° North 280 322 23,200 900 Climbing Jacksonville Center
07:30PM 29.7006 -82.6367 359° North 280 322 24,000 480 Climbing Jacksonville Center
07:31PM 29.7881 -82.6461 355° North 297 342 24,200 600 Climbing Jacksonville Center
07:32PM 29.8758 -82.6506 357° North 303 349 25,200 960 Climbing Jacksonville Center
07:33PM 29.9594 -82.6553 357° North 303 349 26,200 1,020 Climbing Jacksonville Center
07:35PM 30.1203 -82.6619 358° North 292 336 28,300 1,020 Climbing Jacksonville Center
07:36PM 30.1994 -82.6667 357° North 286 329 29,300 960 Climbing Jacksonville Center
07:37PM 30.2767 -82.6714 357° North 286 329 30,300 1,020 Climbing Jacksonville Center
07:38PM 30.3519 -82.6758 357° North 280 322 31,400 1,020 Climbing Jacksonville Center
07:39PM 30.4272 -82.6806 357° North 270 311 32,400 480 Climbing Jacksonville Center
07:41PM 30.5878 -82.6247 17° North 281 323 33,000 180 Climbing Jacksonville Center
07:42PM 30.6628 -82.5350 46° Northeast 329 379 33,000  Level Jacksonville Center
07:43PM 30.7439 -82.4503 42° Northeast 360 414 33,000  Level Jacksonville Center
07:45PM 30.9061 -82.2825 42° Northeast 381 438 33,000  Level Jacksonville Center
07:46PM 30.9911 -82.1969 41° Northeast 386 444 33,000  Level Jacksonville Center
07:47PM 31.0742 -82.1092 42° Northeast 386 444 33,000  Level Jacksonville Center
07:48PM 31.1550 -82.0258 41° Northeast 386 444 33,000  Level Jacksonville Center
07:49PM 31.2381 -81.9400 41° Northeast 386 444 33,000  Level Jacksonville Center
07:50PM 31.3208 -81.8542 42° Northeast 391 450 33,000  Level Jacksonville Center
07:51PM 31.4058 -81.7656 42° Northeast 390 449 33,000  Level Jacksonville Center
07:53PM 31.5711 -81.5953 41° Northeast 390 449 33,000  Level Jacksonville Center
07:54PM 31.6517 -81.5111 42° Northeast 384 442 33,000  Level Jacksonville Center
07:55PM 31.7258 -81.4319 42° Northeast 389 448 33,000  Level Jacksonville Center
07:56PM 31.8147 -81.3400 41° Northeast 384 442 33,000  Level Jacksonville Center
07:57PM 31.8969 -81.2506 43° Northeast 385 443 33,000  Level Jacksonville Center
07:58PM 31.9772 -81.1658 42° Northeast 385 443 33,000  Level Jacksonville Center
07:59PM 32.0597 -81.0786 42° Northeast 389 448 33,000  Level Jacksonville Center
08:00PM 32.1317 -81.0036 41° Northeast 383 441 33,000  Level Jacksonville Center
08:01PM 32.2178 -80.9108 42° Northeast 383 441 33,000  Level Jacksonville Center
08:02PM 32.2897 -80.8356 41° Northeast 383 441 33,000  Level Jacksonville Center
08:04PM 32.4536 -80.6547 43° Northeast 381 438 33,000  Level Jacksonville Center
08:05PM 32.5336 -80.5714 41° Northeast 381 438 33,000  Level Jacksonville Center
08:06PM 32.6133 -80.4881 41° Northeast 381 438 33,000  Level Jacksonville Center
08:07PM 32.6869 -80.4044 44° Northeast 381 438 33,000  Level Jacksonville Center
08:08PM 32.7667 -80.3183 42° Northeast 381 438 33,000  Level Jacksonville Center
08:09PM 32.8422 -80.2347 43° Northeast 381 438 33,000  Level Jacksonville Center
08:10PM 32.9197 -80.1483 43° Northeast 381 438 33,000  Level Jacksonville Center
08:11PM 32.9992 -80.0642 42° Northeast 386 444 33,000  Level Jacksonville Center
08:12PM 33.0764 -79.9772 43° Northeast 381 438 33,000  Level Jacksonville Center
08:13PM 33.1539 -79.8953 42° Northeast 381 438 33,000  Level Jacksonville Center
08:14PM 33.2331 -79.8083 43° Northeast 381 438 33,000  Level Jacksonville Center
08:15PM 33.3083 -79.7261 42° Northeast 381 438 33,000  Level Jacksonville Center
08:16PM 33.3856 -79.6414 42° Northeast 381 438 33,000  Level Jacksonville Center
08:17PM 33.4606 -79.5564 43° Northeast 381 438 33,000  Level Jacksonville Center
08:18PM 33.5375 -79.4714 43° Northeast 376 433 33,000  Level Jacksonville Center
08:19PM 33.6167 -79.3861 42° Northeast 376 433 33,000  Level Jacksonville Center
08:21PM 33.7642 -79.2178 43° Northeast 371 427 33,000  Level Jacksonville Center
08:22PM 33.8389 -79.1322 44° Northeast 366 421 33,000  Level Jacksonville Center
08:23PM 33.9175 -79.0436 43° Northeast 366 421 33,000  Level Jacksonville Center
08:27PM 34.2375 -78.7194 38° Northeast 355 409 33,000  Level Washington Center
08:28PM 34.3167 -78.6394 40° Northeast 361 415 33,000  Level Washington Center
08:29PM 34.3936 -78.5617 40° Northeast 361 415 33,000  Level Washington Center
08:30PM 34.4728 -78.4839 39° Northeast 361 415 33,000  Level Washington Center
08:31PM 34.5542 -78.3986 41° Northeast 371 427 33,000  Level Washington Center
08:32PM 34.6289 -78.3256 39° Northeast 365 420 33,000  Level Washington Center
08:33PM 34.7100 -78.2447 39° Northeast 365 420 33,000  Level Washington Center
08:34PM 34.7928 -78.1792 33° Northeast 360 414 33,000  Level Washington Center
08:35PM 34.8672 -78.1158 35° Northeast 355 409 33,000  Level Washington Center
08:36PM 34.9603 -78.0453 32° Northeast 364 419 33,000  Level Washington Center
08:37PM 35.0475 -77.9742 34° Northeast 369 425 33,000  Level Washington Center
08:38PM 35.1300 -77.9081 33° Northeast 364 419 33,000  Level Washington Center
08:39PM 35.2128 -77.8394 34° Northeast 359 413 33,000  Level Washington Center
08:40PM 35.2994 -77.7731 32° Northeast 359 413 33,000  Level Washington Center
08:41PM 35.3842 -77.7039 34° Northeast 359 413 33,000  Level Washington Center
08:42PM 35.4667 -77.6372 33° Northeast 359 413 33,000  Level Washington Center
08:43PM 35.5492 -77.5706 33° Northeast 359 413 33,000  Level Washington Center
08:44PM 35.6358 -77.5011 33° Northeast 354 407 33,000  Level Washington Center
08:45PM 35.7225 -77.4342 32° Northeast 354 407 33,000  Level Washington Center
08:46PM 35.8050 -77.3642 35° Northeast 354 407 33,000  Level Washington Center
08:47PM 35.8894 -77.2969 33° Northeast 354 407 33,000  Level Washington Center
08:48PM 35.9758 -77.2294 32° Northeast 354 407 33,000  Level Washington Center
08:49PM 36.0581 -77.1592 35° Northeast 354 407 33,000  Level Washington Center
08:51PM 36.2225 -77.0236 34° Northeast 349 402 33,000  Level Washington Center
08:52PM 36.3028 -76.9581 33° Northeast 349 402 33,000  Level Washington Center
08:53PM 36.3764 -76.8947 35° Northeast 344 396 33,000  Level Washington Center
08:55PM 36.5300 -76.7681 34° Northeast 331 381 33,000  Level Washington Center
08:57PM 36.6836 -76.6408 34° Northeast 331 381 33,000  Level Washington Center
08:58PM 36.7592 -76.5769 34° Northeast 331 381 33,000  Level Washington Center
08:59PM 36.8347 -76.5131 34° Northeast 331 381 33,000  Level Washington Center
09:01PM 36.9858 -76.3850 34° Northeast 331 381 33,000  Level Washington Center
09:02PM 37.0633 -76.3206 34° Northeast 331 381 33,000  Level Washington Center
09:03PM 37.1389 -76.2536 35° Northeast 331 381 33,000  Level Washington Center
09:04PM 37.2186 -76.1892 33° Northeast 331 381 33,000  Level Washington Center
09:05PM 37.2878 -76.1297 34° Northeast 331 381 33,000  Level Washington Center
09:06PM 37.3650 -76.0647 34° Northeast 331 381 33,000  Level Washington Center
09:07PM 37.4383 -76.0025 34° Northeast 326 375 33,000  Level Washington Center
09:08PM 37.5136 -75.9375 34° Northeast 326 375 33,000  Level Washington Center
09:10PM 37.6642 -75.8069 34° Northeast 326 375 33,000  Level Washington Center
09:11PM 37.7392 -75.7442 33° Northeast 326 375 33,000  Level Washington Center
09:13PM 37.8875 -75.6103 35° Northeast 326 375 33,000  Level Washington Center
09:14PM 37.9644 -75.5469 33° Northeast 326 375 33,000  Level Washington Center
09:15PM 38.0397 -75.4811 35° Northeast 326 375 33,000  Level Washington Center
09:16PM 38.1125 -75.4097 38° Northeast 326 375 33,000  Level Washington Center
09:17PM 38.1833 -75.3381 38° Northeast 326 375 33,000  Level Washington Center
09:19PM 38.3308 -75.1789 40° Northeast 326 375 33,000  Level Washington Center
09:20PM 38.4014 -75.1069 39° Northeast 321 369 33,000  Level Washington Center
09:21PM 38.4719 -75.0322 40° Northeast 326 375 33,000  Level Washington Center
09:22PM 38.5447 -74.9572 39° Northeast 326 375 33,000  Level Washington Center
09:23PM 38.6089 -74.8850 41° Northeast 333 383 33,000  Level Washington Center
09:25PM 38.7539 -74.7344 39° Northeast 333 383 33,000  Level Washington Center
09:26PM 38.8242 -74.6564 41° Northeast 333 383 33,000  Level Washington Center
09:27PM 38.8944 -74.5781 41° Northeast 333 383 33,000  Level Washington Center
09:28PM 38.9686 -74.5022 38° Northeast 333 383 33,000  Level Washington Center
09:29PM 39.0408 -74.4239 40° Northeast 333 383 33,000  Level Washington Center
09:30PM 39.1153 -74.3450 39° Northeast 333 383 33,000  Level Washington Center
09:31PM 39.1831 -74.2689 41° Northeast 333 383 33,000  Level Washington Center
09:32PM 39.2572 -74.1869 41° Northeast 333 383 33,000  Level Washington Center
09:33PM 39.3272 -74.1106 40° Northeast 333 383 33,000  Level Washington Center
09:34PM 39.4586 -73.9686 40° Northeast 341 392 33,000  Level Boston Center
09:35PM 39.5308 -73.8881 41° Northeast 343 395 33,000  Level Boston Center
09:36PM 39.6025 -73.8083 41° Northeast 343 395 33,000  Level Boston Center
09:38PM 39.6897 -73.7156 39° Northeast 342 394 33,000  Level Boston Center
09:39PM 39.7658 -73.6436 36° Northeast 340 391 33,000  Level Boston Center
09:40PM 39.8431 -73.5703 36° Northeast 340 391 33,000  Level Boston Center
09:41PM 39.9178 -73.4956 37° Northeast 340 391 33,000  Level Boston Center
09:42PM 39.9883 -73.4253 37° Northeast 340 391 33,000  Level Boston Center
09:43PM 40.0653 -73.3508 37° Northeast 343 395 33,000  Level Boston Center
09:44PM 40.1422 -73.2747 37° Northeast 344 396 33,000  Level Boston Center
09:45PM 40.2228 -73.1950 37° Northeast 345 397 33,000  Level Boston Center
09:46PM 40.3000 -73.1197 37° Northeast 345 397 33,000  Level Boston Center
09:47PM 40.3756 -73.0436 37° Northeast 345 397 33,000  Level Boston Center
09:48PM 40.4531 -72.9667 37° Northeast 346 398 33,000  Level Boston Center
09:49PM 40.5292 -72.8900 37° Northeast 345 397 33,000  Level Boston Center
09:50PM 40.6275 -72.8136 31° Northeast 343 395 33,000  Level Boston Center
09:51PM 40.7097 -72.7489 31° Northeast 343 395 33,000  Level Boston Center
09:52PM 40.7897 -72.6867 30° Northeast 343 395 33,000  Level Boston Center
09:53PM 40.8719 -72.6222 31° Northeast 343 395 33,000  Level Boston Center
09:54PM 40.9542 -72.5581 31° Northeast 343 395 33,000  Level Boston Center
09:55PM 41.0347 -72.4933 31° Northeast 343 395 33,000  Level Boston Center
09:56PM 41.1167 -72.4297 30° Northeast 343 395 33,000  Level Boston Center
09:57PM 41.1986 -72.3650 31° Northeast 343 395 33,000  Level Boston Center
09:58PM 41.2883 -72.2947 30° Northeast 344 396 33,000  Level Boston Center
09:59PM 41.3683 -72.2261 33° Northeast 344 396 33,000  Level Boston Center
10:00PM 41.4511 -72.1592 31° Northeast 345 397 33,000  Level Boston Center
10:01PM 41.5439 -72.0861 31° Northeast 345 397 33,000 -60 Level Boston Center
10:02PM 41.6278 -72.0217 30° Northeast 350 403 32,900 -540 Descending Boston Center
10:03PM 41.7128 -71.9536 31° Northeast 356 410 32,000 -1,200 Descending Boston Center
10:04PM 41.8017 -71.8811 31° Northeast 371 427 30,500 -1,560 Descending Boston Center
10:05PM 41.8883 -71.8094 32° Northeast 371 427 28,900 -1,680 Descending Boston Center
10:06PM 41.9681 -71.7314 36° Northeast 362 417 27,200 -1,680 Descending Boston Center
10:07PM 42.0453 -71.6569 36° Northeast 347 399 25,600 -1,740 Descending Boston Center
10:08PM 42.1203 -71.5853 35° Northeast 338 389 23,700 -1,920 Descending Boston Center
10:09PM 42.1944 -71.5136 36° Northeast 333 383 21,700 -1,860 Descending Boston Center
10:10PM 42.2692 -71.4489 33° Northeast 325 374 20,000 -1,860 Descending Boston Center
10:11PM 42.3564 -71.3689 34° Northeast 315 362 18,000 -1,860 Descending Boston Center
10:12PM 42.4200 -71.2933 41° Northeast 310 357 16,300 -1,440 Descending Boston Center
10:13PM 42.4842 -71.2222 39° Northeast 302 348 15,200 -1,140 Descending Boston Center
10:14PM 42.5483 -71.1508 39° Northeast 301 346 14,100 -1,200 Descending Boston Center
10:15PM 42.6089 -71.0783 41° Northeast 296 341 12,800 -1,380 Descending Boston Center
10:16PM 42.6742 -71.0042 40° Northeast 287 330 11,400 -1,380 Descending Boston Center
10:17PM 42.7314 -70.9353 41° Northeast 278 320 10,000 -1,680 Descending Boston Center
10:18PM 42.7839 -70.8792 38° Northeast 244 281 8,000 -2,280 Descending Boston Center
10:19PM 42.8308 -70.8322 36° Northeast 214 246 5,500 -2,100 Descending Boston Center
10:20PM 42.8783 -70.7939 31° Northeast 200 230 3,800 -1,380 Descending Boston Center
10:21PM 42.9278 -70.7569 29° Northeast 194 223 2,800 -840 Descending Boston Center
10:22PM 42.9725 -70.7453 11° North 167 192 2,200 -600 Descending Boston Center
10:23PM 43.0019 -70.7628 337° Northwest 126 145 1,600 -660 Descending Boston Center
10:24PM 43.0317 -70.7883 328° Northwest 123 142 900 -720 Descending Boston Center
10:25PM 43.0611 -70.8108 331° Northwest 124 143 200 -360 Descending Boston Center
10:26PM 43.0847 -70.8311 328° Northwest 124 143 200  Level Boston Center